sensor_id;sensor_type;location;lat;lon;timestamp;P1;durP1;ratioP1;P2;durP2;ratioP2
48925;SDS011;39838;59.938;30.642;2023-05-21T00:00:36;7.97;;;4.60;;
48925;SDS011;39838;59.938;30.642;2023-05-21T00:03:03;6.57;;;4.20;;
48925;SDS011;39838;59.938;30.642;2023-05-21T00:05:38;8.70;;;4.32;;
48925;SDS011;39838;59.938;30.642;2023-05-21T00:08:06;11.43;;;5.00;;
48925;SDS011;39838;59.938;30.642;2023-05-21T00:10:34;9.70;;;5.30;;
48925;SDS011;39838;59.938;30.642;2023-05-21T00:13:02;11.73;;;5.90;;
48925;SDS011;39838;59.938;30.642;2023-05-21T00:15:29;12.57;;;5.85;;
48925;SDS011;39838;59.938;30.642;2023-05-21T00:17:56;11.88;;;5.88;;
48925;SDS011;39838;59.938;30.642;2023-05-21T00:20:24;13.30;;;6.45;;
48925;SDS011;39838;59.938;30.642;2023-05-21T00:22:53;14.60;;;8.35;;
48925;SDS011;39838;59.938;30.642;2023-05-21T00:25:22;16.83;;;8.35;;
48925;SDS011;39838;59.938;30.642;2023-05-21T00:27:49;17.90;;;8.60;;
48925;SDS011;39838;59.938;30.642;2023-05-21T00:30:16;20.13;;;8.70;;
48925;SDS011;39838;59.938;30.642;2023-05-21T00:32:44;15.73;;;9.00;;
48925;SDS011;39838;59.938;30.642;2023-05-21T00:35:11;20.25;;;9.02;;
48925;SDS011;39838;59.938;30.642;2023-05-21T00:37:39;25.10;;;9.88;;
48925;SDS011;39838;59.938;30.642;2023-05-21T00:40:07;24.58;;;10.10;;
48925;SDS011;39838;59.938;30.642;2023-05-21T00:42:37;19.55;;;10.25;;
48925;SDS011;39838;59.938;30.642;2023-05-21T00:45:06;31.27;;;14.18;;
48925;SDS011;39838;59.938;30.642;2023-05-21T00:47:34;31.63;;;14.02;;
48925;SDS011;39838;59.938;30.642;2023-05-21T00:50:01;36.05;;;17.63;;
48925;SDS011;39838;59.938;30.642;2023-05-21T00:52:30;27.05;;;15.02;;
48925;SDS011;39838;59.938;30.642;2023-05-21T00:55:06;37.40;;;14.88;;
48925;SDS011;39838;59.938;30.642;2023-05-21T00:57:34;34.05;;;14.15;;
48925;SDS011;39838;59.938;30.642;2023-05-21T01:00:04;31.52;;;14.05;;
48925;SDS011;39838;59.938;30.642;2023-05-21T01:02:33;29.83;;;13.85;;
48925;SDS011;39838;59.938;30.642;2023-05-21T01:05:02;29.85;;;14.25;;
48925;SDS011;39838;59.938;30.642;2023-05-21T01:07:31;32.60;;;15.65;;
48925;SDS011;39838;59.938;30.642;2023-05-21T01:10:00;28.80;;;14.82;;
48925;SDS011;39838;59.938;30.642;2023-05-21T01:12:30;33.22;;;16.38;;
48925;SDS011;39838;59.938;30.642;2023-05-21T01:14:58;36.15;;;15.18;;
48925;SDS011;39838;59.938;30.642;2023-05-21T01:17:34;30.63;;;15.07;;
48925;SDS011;39838;59.938;30.642;2023-05-21T01:20:02;34.85;;;14.68;;
48925;SDS011;39838;59.938;30.642;2023-05-21T01:22:35;32.30;;;13.15;;
48925;SDS011;39838;59.938;30.642;2023-05-21T01:25:09;26.30;;;13.32;;
48925;SDS011;39838;59.938;30.642;2023-05-21T01:27:37;29.83;;;13.55;;
48925;SDS011;39838;59.938;30.642;2023-05-21T01:30:05;26.30;;;13.82;;
48925;SDS011;39838;59.938;30.642;2023-05-21T01:32:34;25.30;;;12.73;;
48925;SDS011;39838;59.938;30.642;2023-05-21T01:35:08;29.90;;;13.30;;
48925;SDS011;39838;59.938;30.642;2023-05-21T01:37:39;29.38;;;13.13;;
48925;SDS011;39838;59.938;30.642;2023-05-21T01:40:16;30.33;;;13.15;;
48925;SDS011;39838;59.938;30.642;2023-05-21T01:42:51;25.95;;;11.45;;
48925;SDS011;39838;59.938;30.642;2023-05-21T01:45:19;26.08;;;11.55;;
48925;SDS011;39838;59.938;30.642;2023-05-21T01:47:50;23.17;;;10.77;;
48925;SDS011;39838;59.938;30.642;2023-05-21T01:50:19;26.05;;;10.15;;
48925;SDS011;39838;59.938;30.642;2023-05-21T01:52:48;23.33;;;11.50;;
48925;SDS011;39838;59.938;30.642;2023-05-21T01:55:19;17.50;;;10.60;;
48925;SDS011;39838;59.938;30.642;2023-05-21T01:57:49;23.67;;;10.50;;
48925;SDS011;39838;59.938;30.642;2023-05-21T02:00:17;23.38;;;10.77;;
48925;SDS011;39838;59.938;30.642;2023-05-21T02:02:45;21.40;;;10.18;;
48925;SDS011;39838;59.938;30.642;2023-05-21T02:05:12;26.67;;;10.27;;
48925;SDS011;39838;59.938;30.642;2023-05-21T02:07:40;21.00;;;8.23;;
48925;SDS011;39838;59.938;30.642;2023-05-21T02:10:08;23.38;;;8.75;;
48925;SDS011;39838;59.938;30.642;2023-05-21T02:12:38;24.73;;;8.98;;
48925;SDS011;39838;59.938;30.642;2023-05-21T02:15:06;21.08;;;10.05;;
48925;SDS011;39838;59.938;30.642;2023-05-21T02:17:33;22.67;;;9.52;;
48925;SDS011;39838;59.938;30.642;2023-05-21T02:20:03;25.60;;;10.15;;
48925;SDS011;39838;59.938;30.642;2023-05-21T02:22:35;16.33;;;10.05;;
48925;SDS011;39838;59.938;30.642;2023-05-21T02:25:04;21.85;;;10.10;;
48925;SDS011;39838;59.938;30.642;2023-05-21T02:27:33;22.20;;;10.70;;
48925;SDS011;39838;59.938;30.642;2023-05-21T02:30:02;23.88;;;10.00;;
48925;SDS011;39838;59.938;30.642;2023-05-21T02:32:31;22.90;;;10.80;;
48925;SDS011;39838;59.938;30.642;2023-05-21T02:34:59;22.52;;;10.55;;
48925;SDS011;39838;59.938;30.642;2023-05-21T02:37:31;21.33;;;10.35;;
48925;SDS011;39838;59.938;30.642;2023-05-21T02:39:59;18.30;;;10.68;;
48925;SDS011;39838;59.938;30.642;2023-05-21T02:42:33;23.23;;;11.10;;
48925;SDS011;39838;59.938;30.642;2023-05-21T02:45:05;26.10;;;10.23;;
48925;SDS011;39838;59.938;30.642;2023-05-21T02:47:33;24.63;;;10.48;;
48925;SDS011;39838;59.938;30.642;2023-05-21T02:50:01;18.38;;;9.23;;
48925;SDS011;39838;59.938;30.642;2023-05-21T02:52:30;19.30;;;9.80;;
48925;SDS011;39838;59.938;30.642;2023-05-21T02:54:58;21.33;;;10.88;;
48925;SDS011;39838;59.938;30.642;2023-05-21T02:57:25;28.63;;;10.18;;
48925;SDS011;39838;59.938;30.642;2023-05-21T02:59:52;17.60;;;10.02;;
48925;SDS011;39838;59.938;30.642;2023-05-21T03:02:22;22.10;;;10.10;;
48925;SDS011;39838;59.938;30.642;2023-05-21T03:04:49;18.83;;;10.25;;
48925;SDS011;39838;59.938;30.642;2023-05-21T03:07:16;20.42;;;9.95;;
48925;SDS011;39838;59.938;30.642;2023-05-21T03:09:44;16.80;;;9.38;;
48925;SDS011;39838;59.938;30.642;2023-05-21T03:12:12;19.08;;;10.18;;
48925;SDS011;39838;59.938;30.642;2023-05-21T03:14:39;17.58;;;9.20;;
48925;SDS011;39838;59.938;30.642;2023-05-21T03:17:08;21.05;;;9.77;;
48925;SDS011;39838;59.938;30.642;2023-05-21T03:19:39;18.65;;;10.13;;
48925;SDS011;39838;59.938;30.642;2023-05-21T03:22:07;17.70;;;9.45;;
48925;SDS011;39838;59.938;30.642;2023-05-21T03:24:36;19.38;;;9.55;;
48925;SDS011;39838;59.938;30.642;2023-05-21T03:27:03;25.33;;;10.20;;
48925;SDS011;39838;59.938;30.642;2023-05-21T03:29:32;17.60;;;9.20;;
48925;SDS011;39838;59.938;30.642;2023-05-21T03:31:59;20.15;;;9.02;;
48925;SDS011;39838;59.938;30.642;2023-05-21T03:34:27;22.00;;;10.30;;
48925;SDS011;39838;59.938;30.642;2023-05-21T03:36:56;17.25;;;10.43;;
48925;SDS011;39838;59.938;30.642;2023-05-21T03:39:23;21.83;;;10.10;;
48925;SDS011;39838;59.938;30.642;2023-05-21T03:41:50;21.33;;;9.90;;
48925;SDS011;39838;59.938;30.642;2023-05-21T03:44:17;17.40;;;9.48;;
48925;SDS011;39838;59.938;30.642;2023-05-21T03:46:45;19.48;;;10.40;;
48925;SDS011;39838;59.938;30.642;2023-05-21T03:49:12;23.73;;;10.43;;
48925;SDS011;39838;59.938;30.642;2023-05-21T03:51:39;20.60;;;10.63;;
48925;SDS011;39838;59.938;30.642;2023-05-21T03:54:08;20.42;;;10.65;;
48925;SDS011;39838;59.938;30.642;2023-05-21T03:56:35;24.42;;;10.45;;
48925;SDS011;39838;59.938;30.642;2023-05-21T03:59:03;21.48;;;10.90;;
48925;SDS011;39838;59.938;30.642;2023-05-21T04:01:30;18.05;;;9.45;;
48925;SDS011;39838;59.938;30.642;2023-05-21T04:03:58;24.05;;;10.00;;
48925;SDS011;39838;59.938;30.642;2023-05-21T04:06:25;20.05;;;9.50;;
48925;SDS011;39838;59.938;30.642;2023-05-21T04:08:54;20.65;;;9.90;;
48925;SDS011;39838;59.938;30.642;2023-05-21T04:11:23;24.65;;;9.70;;
48925;SDS011;39838;59.938;30.642;2023-05-21T04:13:50;20.20;;;10.65;;
48925;SDS011;39838;59.938;30.642;2023-05-21T04:16:18;19.42;;;9.68;;
48925;SDS011;39838;59.938;30.642;2023-05-21T04:18:45;23.52;;;9.57;;
48925;SDS011;39838;59.938;30.642;2023-05-21T04:21:12;21.40;;;9.63;;
48925;SDS011;39838;59.938;30.642;2023-05-21T04:23:40;17.10;;;9.05;;
48925;SDS011;39838;59.938;30.642;2023-05-21T04:26:07;20.60;;;8.40;;
48925;SDS011;39838;59.938;30.642;2023-05-21T04:28:38;17.65;;;7.68;;
48925;SDS011;39838;59.938;30.642;2023-05-21T04:31:06;11.27;;;7.22;;
48925;SDS011;39838;59.938;30.642;2023-05-21T04:33:34;11.75;;;6.57;;
48925;SDS011;39838;59.938;30.642;2023-05-21T04:36:01;13.60;;;6.70;;
48925;SDS011;39838;59.938;30.642;2023-05-21T04:38:29;16.45;;;8.43;;
48925;SDS011;39838;59.938;30.642;2023-05-21T04:40:56;13.68;;;7.43;;
48925;SDS011;39838;59.938;30.642;2023-05-21T04:43:28;17.05;;;7.65;;
48925;SDS011;39838;59.938;30.642;2023-05-21T04:45:57;10.90;;;6.63;;
48925;SDS011;39838;59.938;30.642;2023-05-21T04:48:25;16.20;;;7.47;;
48925;SDS011;39838;59.938;30.642;2023-05-21T04:50:53;11.93;;;6.60;;
48925;SDS011;39838;59.938;30.642;2023-05-21T04:53:21;11.00;;;6.47;;
48925;SDS011;39838;59.938;30.642;2023-05-21T04:55:50;9.43;;;5.88;;
48925;SDS011;39838;59.938;30.642;2023-05-21T04:58:17;9.73;;;5.75;;
48925;SDS011;39838;59.938;30.642;2023-05-21T05:00:44;18.42;;;9.63;;
48925;SDS011;39838;59.938;30.642;2023-05-21T05:03:16;9.02;;;5.00;;
48925;SDS011;39838;59.938;30.642;2023-05-21T05:05:43;9.77;;;4.22;;
48925;SDS011;39838;59.938;30.642;2023-05-21T05:08:11;11.10;;;6.18;;
48925;SDS011;39838;59.938;30.642;2023-05-21T05:10:39;20.17;;;9.00;;
48925;SDS011;39838;59.938;30.642;2023-05-21T05:13:06;26.65;;;12.60;;
48925;SDS011;39838;59.938;30.642;2023-05-21T05:15:34;40.80;;;12.00;;
48925;SDS011;39838;59.938;30.642;2023-05-21T05:18:01;30.77;;;10.15;;
48925;SDS011;39838;59.938;30.642;2023-05-21T05:20:30;25.63;;;9.15;;
48925;SDS011;39838;59.938;30.642;2023-05-21T05:22:57;17.98;;;7.80;;
48925;SDS011;39838;59.938;30.642;2023-05-21T05:25:25;25.60;;;7.50;;
48925;SDS011;39838;59.938;30.642;2023-05-21T05:27:52;19.65;;;7.80;;
48925;SDS011;39838;59.938;30.642;2023-05-21T05:30:20;16.13;;;7.13;;
48925;SDS011;39838;59.938;30.642;2023-05-21T05:32:47;19.92;;;6.50;;
48925;SDS011;39838;59.938;30.642;2023-05-21T05:35:14;16.08;;;5.78;;
48925;SDS011;39838;59.938;30.642;2023-05-21T05:37:43;11.57;;;5.63;;
48925;SDS011;39838;59.938;30.642;2023-05-21T05:40:10;15.18;;;5.53;;
48925;SDS011;39838;59.938;30.642;2023-05-21T05:42:38;11.52;;;5.03;;
48925;SDS011;39838;59.938;30.642;2023-05-21T05:45:05;12.38;;;4.40;;
48925;SDS011;39838;59.938;30.642;2023-05-21T05:47:33;8.38;;;4.70;;
48925;SDS011;39838;59.938;30.642;2023-05-21T05:50:01;11.65;;;4.68;;
48925;SDS011;39838;59.938;30.642;2023-05-21T05:52:30;7.50;;;4.70;;
48925;SDS011;39838;59.938;30.642;2023-05-21T05:54:58;10.82;;;5.25;;
48925;SDS011;39838;59.938;30.642;2023-05-21T05:57:26;14.63;;;5.03;;
48925;SDS011;39838;59.938;30.642;2023-05-21T05:59:53;7.53;;;4.30;;
48925;SDS011;39838;59.938;30.642;2023-05-21T06:02:20;9.77;;;4.10;;
48925;SDS011;39838;59.938;30.642;2023-05-21T06:04:47;9.70;;;4.50;;
48925;SDS011;39838;59.938;30.642;2023-05-21T06:07:15;6.50;;;4.35;;
48925;SDS011;39838;59.938;30.642;2023-05-21T06:09:42;6.80;;;4.15;;
48925;SDS011;39838;59.938;30.642;2023-05-21T06:12:11;9.98;;;4.20;;
48925;SDS011;39838;59.938;30.642;2023-05-21T06:14:40;9.43;;;6.22;;
48925;SDS011;39838;59.938;30.642;2023-05-21T06:17:07;6.35;;;3.70;;
48925;SDS011;39838;59.938;30.642;2023-05-21T06:19:34;6.22;;;4.07;;
48925;SDS011;39838;59.938;30.642;2023-05-21T06:22:02;8.18;;;4.70;;
48925;SDS011;39838;59.938;30.642;2023-05-21T06:24:29;7.57;;;3.80;;
48925;SDS011;39838;59.938;30.642;2023-05-21T06:26:56;5.22;;;3.55;;
48925;SDS011;39838;59.938;30.642;2023-05-21T06:29:25;4.88;;;3.20;;
48925;SDS011;39838;59.938;30.642;2023-05-21T06:31:52;4.90;;;3.10;;
48925;SDS011;39838;59.938;30.642;2023-05-21T06:34:20;4.93;;;3.20;;
48925;SDS011;39838;59.938;30.642;2023-05-21T06:36:47;7.30;;;3.20;;
48925;SDS011;39838;59.938;30.642;2023-05-21T06:39:14;4.68;;;2.80;;
48925;SDS011;39838;59.938;30.642;2023-05-21T06:41:41;5.82;;;3.10;;
48925;SDS011;39838;59.938;30.642;2023-05-21T06:44:09;7.35;;;2.90;;
48925;SDS011;39838;59.938;30.642;2023-05-21T06:46:37;5.45;;;2.88;;
48925;SDS011;39838;59.938;30.642;2023-05-21T06:49:05;4.88;;;2.95;;
48925;SDS011;39838;59.938;30.642;2023-05-21T06:51:32;5.10;;;3.10;;
48925;SDS011;39838;59.938;30.642;2023-05-21T06:54:00;6.88;;;3.05;;
48925;SDS011;39838;59.938;30.642;2023-05-21T06:56:27;5.93;;;3.65;;
48925;SDS011;39838;59.938;30.642;2023-05-21T06:58:54;6.90;;;3.00;;
48925;SDS011;39838;59.938;30.642;2023-05-21T07:01:22;5.18;;;3.00;;
48925;SDS011;39838;59.938;30.642;2023-05-21T07:03:51;5.72;;;3.00;;
48925;SDS011;39838;59.938;30.642;2023-05-21T07:06:18;4.70;;;2.97;;
48925;SDS011;39838;59.938;30.642;2023-05-21T07:08:46;4.68;;;2.67;;
48925;SDS011;39838;59.938;30.642;2023-05-21T07:11:14;5.10;;;2.90;;
48925;SDS011;39838;59.938;30.642;2023-05-21T07:13:41;5.15;;;3.05;;
48925;SDS011;39838;59.938;30.642;2023-05-21T07:16:09;7.78;;;2.75;;
48925;SDS011;39838;59.938;30.642;2023-05-21T07:18:36;5.53;;;2.70;;
48925;SDS011;39838;59.938;30.642;2023-05-21T07:21:05;5.55;;;3.00;;
48925;SDS011;39838;59.938;30.642;2023-05-21T07:23:32;5.50;;;3.50;;
48925;SDS011;39838;59.938;30.642;2023-05-21T07:25:59;5.07;;;3.30;;
48925;SDS011;39838;59.938;30.642;2023-05-21T07:28:27;5.13;;;3.03;;
48925;SDS011;39838;59.938;30.642;2023-05-21T07:30:54;6.50;;;3.10;;
48925;SDS011;39838;59.938;30.642;2023-05-21T07:33:21;5.18;;;2.88;;
48925;SDS011;39838;59.938;30.642;2023-05-21T07:35:48;4.07;;;2.55;;
48925;SDS011;39838;59.938;30.642;2023-05-21T07:38:17;6.80;;;3.30;;
48925;SDS011;39838;59.938;30.642;2023-05-21T07:40:44;5.63;;;3.00;;
48925;SDS011;39838;59.938;30.642;2023-05-21T07:43:12;9.45;;;2.92;;
48925;SDS011;39838;59.938;30.642;2023-05-21T07:45:39;4.95;;;2.83;;
48925;SDS011;39838;59.938;30.642;2023-05-21T07:48:06;4.68;;;2.72;;
48925;SDS011;39838;59.938;30.642;2023-05-21T07:50:33;5.57;;;2.75;;
48925;SDS011;39838;59.938;30.642;2023-05-21T07:53:02;6.50;;;2.70;;
48925;SDS011;39838;59.938;30.642;2023-05-21T07:55:30;5.15;;;2.80;;
48925;SDS011;39838;59.938;30.642;2023-05-21T07:57:57;6.53;;;3.63;;
48925;SDS011;39838;59.938;30.642;2023-05-21T08:00:25;4.20;;;3.00;;
48925;SDS011;39838;59.938;30.642;2023-05-21T08:02:53;7.63;;;3.20;;
48925;SDS011;39838;59.938;30.642;2023-05-21T08:05:20;6.30;;;3.00;;
48925;SDS011;39838;59.938;30.642;2023-05-21T08:07:48;5.70;;;3.20;;
48925;SDS011;39838;59.938;30.642;2023-05-21T08:10:16;7.88;;;3.20;;
48925;SDS011;39838;59.938;30.642;2023-05-21T08:12:45;9.60;;;3.65;;
48925;SDS011;39838;59.938;30.642;2023-05-21T08:15:12;5.72;;;3.05;;
48925;SDS011;39838;59.938;30.642;2023-05-21T08:17:39;4.03;;;2.60;;
48925;SDS011;39838;59.938;30.642;2023-05-21T08:20:07;4.43;;;3.28;;
48925;SDS011;39838;59.938;30.642;2023-05-21T08:22:35;4.90;;;2.95;;
48925;SDS011;39838;59.938;30.642;2023-05-21T08:25:02;4.88;;;2.97;;
48925;SDS011;39838;59.938;30.642;2023-05-21T08:27:30;3.85;;;2.45;;
48925;SDS011;39838;59.938;30.642;2023-05-21T08:29:59;4.45;;;2.80;;
48925;SDS011;39838;59.938;30.642;2023-05-21T08:32:26;4.15;;;2.75;;
48925;SDS011;39838;59.938;30.642;2023-05-21T08:34:53;4.90;;;3.10;;
48925;SDS011;39838;59.938;30.642;2023-05-21T08:37:21;4.25;;;2.53;;
48925;SDS011;39838;59.938;30.642;2023-05-21T08:39:49;5.32;;;2.70;;
48925;SDS011;39838;59.938;30.642;2023-05-21T08:42:18;4.00;;;2.45;;
48925;SDS011;39838;59.938;30.642;2023-05-21T08:44:53;5.10;;;2.88;;
48925;SDS011;39838;59.938;30.642;2023-05-21T08:47:26;5.05;;;2.50;;
48925;SDS011;39838;59.938;30.642;2023-05-21T08:49:59;4.13;;;2.95;;
48925;SDS011;39838;59.938;30.642;2023-05-21T08:52:30;5.80;;;2.42;;
48925;SDS011;39838;59.938;30.642;2023-05-21T08:54:57;5.82;;;2.83;;
48925;SDS011;39838;59.938;30.642;2023-05-21T08:57:25;4.35;;;2.50;;
48925;SDS011;39838;59.938;30.642;2023-05-21T08:59:53;5.82;;;2.65;;
48925;SDS011;39838;59.938;30.642;2023-05-21T09:02:21;9.57;;;2.50;;
48925;SDS011;39838;59.938;30.642;2023-05-21T09:04:50;7.70;;;2.55;;
48925;SDS011;39838;59.938;30.642;2023-05-21T09:07:21;3.97;;;2.50;;
48925;SDS011;39838;59.938;30.642;2023-05-21T09:09:54;9.27;;;4.88;;
48925;SDS011;39838;59.938;30.642;2023-05-21T09:12:22;6.47;;;2.40;;
48925;SDS011;39838;59.938;30.642;2023-05-21T09:14:50;7.03;;;2.50;;
48925;SDS011;39838;59.938;30.642;2023-05-21T09:17:17;4.38;;;2.55;;
48925;SDS011;39838;59.938;30.642;2023-05-21T09:20:06;4.28;;;2.20;;
48925;SDS011;39838;59.938;30.642;2023-05-21T09:22:37;5.72;;;2.25;;
48925;SDS011;39838;59.938;30.642;2023-05-21T09:25:07;3.78;;;2.22;;
48925;SDS011;39838;59.938;30.642;2023-05-21T09:27:35;4.72;;;2.10;;
48925;SDS011;39838;59.938;30.642;2023-05-21T09:30:03;6.90;;;2.50;;
48925;SDS011;39838;59.938;30.642;2023-05-21T09:32:36;4.70;;;2.33;;
48925;SDS011;39838;59.938;30.642;2023-05-21T09:35:08;3.50;;;2.25;;
48925;SDS011;39838;59.938;30.642;2023-05-21T09:40:11;3.22;;;2.40;;
48925;SDS011;39838;59.938;30.642;2023-05-21T09:42:40;7.32;;;2.60;;
48925;SDS011;39838;59.938;30.642;2023-05-21T09:45:09;7.68;;;3.00;;
48925;SDS011;39838;59.938;30.642;2023-05-21T09:47:39;3.78;;;2.40;;
48925;SDS011;39838;59.938;30.642;2023-05-21T09:50:10;5.82;;;2.40;;
48925;SDS011;39838;59.938;30.642;2023-05-21T09:52:38;5.60;;;2.15;;
48925;SDS011;39838;59.938;30.642;2023-05-21T09:55:06;5.85;;;2.28;;
48925;SDS011;39838;59.938;30.642;2023-05-21T09:57:40;5.43;;;2.60;;
48925;SDS011;39838;59.938;30.642;2023-05-21T10:00:08;5.38;;;2.45;;
48925;SDS011;39838;59.938;30.642;2023-05-21T10:02:43;7.53;;;2.45;;
48925;SDS011;39838;59.938;30.642;2023-05-21T10:05:13;4.07;;;2.08;;
48925;SDS011;39838;59.938;30.642;2023-05-21T10:07:41;4.20;;;2.10;;
48925;SDS011;39838;59.938;30.642;2023-05-21T10:10:13;4.13;;;2.20;;
48925;SDS011;39838;59.938;30.642;2023-05-21T10:12:41;4.25;;;2.30;;
48925;SDS011;39838;59.938;30.642;2023-05-21T10:15:12;3.75;;;2.25;;
48925;SDS011;39838;59.938;30.642;2023-05-21T10:17:42;6.32;;;2.50;;
48925;SDS011;39838;59.938;30.642;2023-05-21T10:20:10;10.45;;;2.40;;
48925;SDS011;39838;59.938;30.642;2023-05-21T10:22:39;4.45;;;2.40;;
48925;SDS011;39838;59.938;30.642;2023-05-21T10:25:07;3.38;;;2.30;;
48925;SDS011;39838;59.938;30.642;2023-05-21T10:27:35;4.82;;;2.40;;
48925;SDS011;39838;59.938;30.642;2023-05-21T10:30:03;3.20;;;2.20;;
48925;SDS011;39838;59.938;30.642;2023-05-21T10:32:33;6.38;;;2.33;;
48925;SDS011;39838;59.938;30.642;2023-05-21T10:35:00;4.95;;;2.35;;
48925;SDS011;39838;59.938;30.642;2023-05-21T10:37:32;3.10;;;2.03;;
48925;SDS011;39838;59.938;30.642;2023-05-21T10:40:02;3.20;;;2.20;;
48925;SDS011;39838;59.938;30.642;2023-05-21T10:45:48;7.03;;;2.30;;
48925;SDS011;39838;59.938;30.642;2023-05-21T10:48:28;5.43;;;2.35;;
48925;SDS011;39838;59.938;30.642;2023-05-21T10:51:15;4.60;;;2.40;;
48925;SDS011;39838;59.938;30.642;2023-05-21T10:53:57;9.15;;;2.72;;
48925;SDS011;39838;59.938;30.642;2023-05-21T10:56:37;5.38;;;2.40;;
48925;SDS011;39838;59.938;30.642;2023-05-21T10:59:13;3.95;;;2.65;;
48925;SDS011;39838;59.938;30.642;2023-05-21T11:01:47;5.68;;;2.30;;
48925;SDS011;39838;59.938;30.642;2023-05-21T11:04:20;5.93;;;2.58;;
48925;SDS011;39838;59.938;30.642;2023-05-21T11:06:48;3.60;;;2.20;;
48925;SDS011;39838;59.938;30.642;2023-05-21T11:09:16;7.18;;;2.40;;
48925;SDS011;39838;59.938;30.642;2023-05-21T11:11:45;4.47;;;2.05;;
48925;SDS011;39838;59.938;30.642;2023-05-21T11:14:28;4.35;;;2.40;;
48925;SDS011;39838;59.938;30.642;2023-05-21T11:16:59;6.82;;;2.38;;
48925;SDS011;39838;59.938;30.642;2023-05-21T11:19:34;8.05;;;2.65;;
48925;SDS011;39838;59.938;30.642;2023-05-21T11:22:07;7.32;;;2.63;;
48925;SDS011;39838;59.938;30.642;2023-05-21T11:24:37;3.58;;;2.28;;
48925;SDS011;39838;59.938;30.642;2023-05-21T11:27:06;4.47;;;2.35;;
48925;SDS011;39838;59.938;30.642;2023-05-21T11:29:41;3.60;;;2.35;;
48925;SDS011;39838;59.938;30.642;2023-05-21T11:32:10;4.70;;;2.50;;
48925;SDS011;39838;59.938;30.642;2023-05-21T11:34:40;3.28;;;2.40;;
48925;SDS011;39838;59.938;30.642;2023-05-21T11:40:17;4.85;;;2.30;;
48925;SDS011;39838;59.938;30.642;2023-05-21T11:42:47;7.60;;;2.40;;
48925;SDS011;39838;59.938;30.642;2023-05-21T11:45:17;6.43;;;2.58;;
48925;SDS011;39838;59.938;30.642;2023-05-21T11:47:45;8.48;;;2.53;;
48925;SDS011;39838;59.938;30.642;2023-05-21T11:50:13;7.53;;;2.50;;
48925;SDS011;39838;59.938;30.642;2023-05-21T11:52:41;4.78;;;2.40;;
48925;SDS011;39838;59.938;30.642;2023-05-21T11:55:10;4.82;;;2.45;;
48925;SDS011;39838;59.938;30.642;2023-05-21T11:57:40;4.78;;;2.72;;
48925;SDS011;39838;59.938;30.642;2023-05-21T12:00:12;4.00;;;2.50;;
48925;SDS011;39838;59.938;30.642;2023-05-21T12:02:45;4.68;;;2.50;;
48925;SDS011;39838;59.938;30.642;2023-05-21T12:05:13;5.13;;;2.35;;
48925;SDS011;39838;59.938;30.642;2023-05-21T12:07:40;3.33;;;2.45;;
48925;SDS011;39838;59.938;30.642;2023-05-21T12:10:08;4.88;;;2.25;;
48925;SDS011;39838;59.938;30.642;2023-05-21T12:12:36;8.02;;;2.50;;
48925;SDS011;39838;59.938;30.642;2023-05-21T12:15:06;5.50;;;2.50;;
48925;SDS011;39838;59.938;30.642;2023-05-21T12:17:34;4.18;;;2.45;;
48925;SDS011;39838;59.938;30.642;2023-05-21T12:20:02;4.43;;;2.60;;
48925;SDS011;39838;59.938;30.642;2023-05-21T12:22:32;13.57;;;2.60;;
48925;SDS011;39838;59.938;30.642;2023-05-21T12:24:59;5.47;;;2.40;;
48925;SDS011;39838;59.938;30.642;2023-05-21T12:27:27;3.53;;;2.30;;
48925;SDS011;39838;59.938;30.642;2023-05-21T12:29:56;4.20;;;2.30;;
48925;SDS011;39838;59.938;30.642;2023-05-21T12:32:26;3.78;;;2.20;;
48925;SDS011;39838;59.938;30.642;2023-05-21T12:34:54;4.95;;;2.30;;
48925;SDS011;39838;59.938;30.642;2023-05-21T12:37:22;5.22;;;2.22;;
48925;SDS011;39838;59.938;30.642;2023-05-21T12:39:51;5.38;;;2.30;;
48925;SDS011;39838;59.938;30.642;2023-05-21T12:42:23;9.95;;;2.53;;
48925;SDS011;39838;59.938;30.642;2023-05-21T12:44:52;6.60;;;2.33;;
48925;SDS011;39838;59.938;30.642;2023-05-21T12:47:23;6.13;;;2.25;;
48925;SDS011;39838;59.938;30.642;2023-05-21T12:49:52;3.42;;;2.33;;
48925;SDS011;39838;59.938;30.642;2023-05-21T12:52:22;3.72;;;2.30;;
48925;SDS011;39838;59.938;30.642;2023-05-21T12:54:52;5.70;;;2.17;;
48925;SDS011;39838;59.938;30.642;2023-05-21T12:57:21;4.70;;;2.25;;
48925;SDS011;39838;59.938;30.642;2023-05-21T12:59:50;5.80;;;2.10;;
48925;SDS011;39838;59.938;30.642;2023-05-21T13:02:23;6.50;;;2.30;;
48925;SDS011;39838;59.938;30.642;2023-05-21T13:04:55;3.28;;;2.00;;
48925;SDS011;39838;59.938;30.642;2023-05-21T13:07:23;4.78;;;2.17;;
48925;SDS011;39838;59.938;30.642;2023-05-21T13:09:50;5.97;;;2.30;;
48925;SDS011;39838;59.938;30.642;2023-05-21T13:12:19;9.80;;;2.40;;
48925;SDS011;39838;59.938;30.642;2023-05-21T13:14:48;3.58;;;2.10;;
48925;SDS011;39838;59.938;30.642;2023-05-21T13:17:16;3.28;;;2.08;;
48925;SDS011;39838;59.938;30.642;2023-05-21T13:19:59;4.25;;;2.20;;
48925;SDS011;39838;59.938;30.642;2023-05-21T13:22:31;4.05;;;2.22;;
48925;SDS011;39838;59.938;30.642;2023-05-21T13:24:59;5.53;;;2.40;;
48925;SDS011;39838;59.938;30.642;2023-05-21T13:27:29;5.18;;;2.03;;
48925;SDS011;39838;59.938;30.642;2023-05-21T13:29:57;6.28;;;2.20;;
48925;SDS011;39838;59.938;30.642;2023-05-21T13:32:24;5.00;;;2.40;;
48925;SDS011;39838;59.938;30.642;2023-05-21T13:34:52;3.10;;;1.98;;
48925;SDS011;39838;59.938;30.642;2023-05-21T13:37:20;2.33;;;1.90;;
48925;SDS011;39838;59.938;30.642;2023-05-21T13:39:47;5.95;;;2.15;;
48925;SDS011;39838;59.938;30.642;2023-05-21T13:42:15;3.13;;;1.98;;
48925;SDS011;39838;59.938;30.642;2023-05-21T13:44:42;2.40;;;1.85;;
48925;SDS011;39838;59.938;30.642;2023-05-21T13:47:09;7.40;;;2.75;;
48925;SDS011;39838;59.938;30.642;2023-05-21T13:49:37;3.67;;;2.55;;
48925;SDS011;39838;59.938;30.642;2023-05-21T13:52:06;3.45;;;2.20;;
48925;SDS011;39838;59.938;30.642;2023-05-21T13:54:34;2.75;;;2.05;;
48925;SDS011;39838;59.938;30.642;2023-05-21T13:57:02;4.47;;;2.03;;
48925;SDS011;39838;59.938;30.642;2023-05-21T13:59:30;2.95;;;2.10;;
48925;SDS011;39838;59.938;30.642;2023-05-21T14:01:57;4.43;;;2.03;;
48925;SDS011;39838;59.938;30.642;2023-05-21T14:04:24;3.50;;;2.00;;
48925;SDS011;39838;59.938;30.642;2023-05-21T14:06:52;6.15;;;2.20;;
48925;SDS011;39838;59.938;30.642;2023-05-21T14:09:21;4.95;;;2.30;;
48925;SDS011;39838;59.938;30.642;2023-05-21T14:11:51;3.58;;;2.20;;
48925;SDS011;39838;59.938;30.642;2023-05-21T14:14:19;2.58;;;1.92;;
48925;SDS011;39838;59.938;30.642;2023-05-21T14:16:47;3.90;;;2.00;;
48925;SDS011;39838;59.938;30.642;2023-05-21T14:19:15;4.38;;;2.40;;
48925;SDS011;39838;59.938;30.642;2023-05-21T14:21:42;3.67;;;2.42;;
48925;SDS011;39838;59.938;30.642;2023-05-21T14:24:10;5.55;;;2.20;;
48925;SDS011;39838;59.938;30.642;2023-05-21T14:26:40;3.90;;;2.20;;
48925;SDS011;39838;59.938;30.642;2023-05-21T14:29:07;2.90;;;2.00;;
48925;SDS011;39838;59.938;30.642;2023-05-21T14:31:35;4.80;;;2.42;;
48925;SDS011;39838;59.938;30.642;2023-05-21T14:34:03;5.40;;;2.50;;
48925;SDS011;39838;59.938;30.642;2023-05-21T14:36:32;15.80;;;2.78;;
48925;SDS011;39838;59.938;30.642;2023-05-21T14:38:59;3.30;;;2.25;;
48925;SDS011;39838;59.938;30.642;2023-05-21T14:41:26;2.10;;;1.90;;
48925;SDS011;39838;59.938;30.642;2023-05-21T14:43:56;5.03;;;2.50;;